Time;durP1;ratioP1;P1;durP2;ratioP2;P2;SDS_P1;SDS_P2;PMS_P1;PMS_P2;Temp;Humidity;BMP_temperature;BMP_pressure;BME280_temperature;BME280_humidity;BME280_pressure;Samples;Min_cycle;Max_cycle;Signal;HPM_P1;HPM_P2
2023/03/27 00:01:25;;;;;;;0.10;0.10;;;;;;;;;;5016753;28;20052;-68
2023/03/27 00:03:55;;;;;;;0.10;0.10;;;;;;;;;;5021631;28;20073;-68
2023/03/27 00:06:24;;;;;;;0.17;0.17;;;;;;;;;;5019215;28;20107;-68
2023/03/27 00:08:53;;;;;;;1.50;1.38;;;;;;;;;;5020027;28;20123;-64
2023/03/27 00:11:24;;;;;;;0.20;0.20;;;;;;;;;;5020938;28;20045;-69
2023/03/27 00:13:53;;;;;;;0.17;0.17;;;;;;;;;;5021984;28;20128;-68
2023/03/27 00:16:22;;;;;;;0.10;0.10;;;;;;;;;;5020729;28;20499;-68
2023/03/27 00:18:51;;;;;;;0.10;0.10;;;;;;;;;;5023513;28;20045;-67
2023/03/27 00:21:22;;;;;;;0.10;0.10;;;;;;;;;;5023212;28;20671;-68
2023/03/27 00:23:50;;;;;;;0.10;0.10;;;;;;;;;;5025748;28;20168;-68
2023/03/27 00:26:20;;;;;;;0.10;0.10;;;;;;;;;;5025949;28;20049;-68
2023/03/27 00:28:48;;;;;;;0.25;0.25;;;;;;;;;;5025225;28;20049;-69
2023/03/27 00:31:17;;;;;;;0.10;0.10;;;;;;;;;;5020035;28;20045;-68
2023/03/27 00:33:45;;;;;;;0.15;0.15;;;;;;;;;;5025172;28;20049;-65
2023/03/27 00:36:14;;;;;;;0.10;0.10;;;;;;;;;;5023315;28;20067;-68
2023/03/27 00:38:44;;;;;;;0.10;0.10;;;;;;;;;;5025189;28;20053;-65
2023/03/27 00:41:13;;;;;;;4.85;0.30;;;;;;;;;;5021020;28;20379;-67
2023/03/27 00:43:42;;;;;;;0.10;0.10;;;;;;;;;;5021555;28;20041;-69
2023/03/27 00:46:23;;;;;;;0.10;0.10;;;;;;;;;;5022256;28;20057;-65
2023/03/27 00:48:52;;;;;;;0.20;0.20;;;;;;;;;;5025192;28;20548;-69
2023/03/27 00:51:21;;;;;;;0.20;0.20;;;;;;;;;;5024115;28;20129;-68
2023/03/27 00:53:52;;;;;;;0.10;0.10;;;;;;;;;;5026934;28;20053;-68
2023/03/27 00:56:20;;;;;;;0.10;0.10;;;;;;;;;;5022220;28;20050;-68
2023/03/27 00:58:50;;;;;;;0.10;0.10;;;;;;;;;;5015711;28;20045;-67
2023/03/27 01:01:19;;;;;;;0.10;0.10;;;;;;;;;;5020275;28;20505;-68
2023/03/27 01:03:50;;;;;;;0.10;0.10;;;;;;;;;;5034172;22;20081;-69
2023/03/27 01:06:19;;;;;;;0.10;0.10;;;;;;;;;;4995047;28;20108;-67
2023/03/27 01:08:48;;;;;;;0.10;0.10;;;;;;;;;;5001477;28;20137;-73
2023/03/27 01:11:22;;;;;;;0.10;0.10;;;;;;;;;;5001522;28;20041;-69
2023/03/27 01:14:09;;;;;;;0.10;0.10;;;;;;;;;;4997968;28;20506;-72
2023/03/27 01:16:40;;;;;;;0.17;0.15;;;;;;;;;;4996248;28;20514;-73
2023/03/27 01:19:23;;;;;;;0.10;0.10;;;;;;;;;;5000313;28;20041;-70
2023/03/27 01:22:11;;;;;;;1.38;0.20;;;;;;;;;;5001082;28;20054;-72
2023/03/27 01:25:12;;;;;;;0.10;0.10;;;;;;;;;;4997544;28;20050;-75
2023/03/27 01:27:53;;;;;;;0.10;0.10;;;;;;;;;;4938419;29;20050;-73
2023/03/27 01:30:24;;;;;;;0.60;0.20;;;;;;;;;;4939653;29;20065;-70
2023/03/27 01:33:07;;;;;;;0.10;0.10;;;;;;;;;;4972094;28;20049;-70
2023/03/27 01:35:50;;;;;;;0.10;0.10;;;;;;;;;;4980869;28;20481;-68
2023/03/27 01:38:28;;;;;;;0.20;0.20;;;;;;;;;;5000017;28;20045;-74
2023/03/27 01:41:01;;;;;;;0.20;0.20;;;;;;;;;;5003392;28;20046;-76
2023/03/27 01:43:34;;;;;;;0.10;0.10;;;;;;;;;;5000211;28;20056;-64
2023/03/27 01:46:07;;;;;;;0.10;0.10;;;;;;;;;;4996980;28;20148;-78
2023/03/27 01:48:40;;;;;;;0.10;0.10;;;;;;;;;;4998104;28;20054;-78
2023/03/27 01:51:11;;;;;;;0.38;0.30;;;;;;;;;;4999278;28;20061;-74
2023/03/27 01:53:42;;;;;;;0.10;0.10;;;;;;;;;;4997603;28;20066;-79
2023/03/27 01:56:16;;;;;;;0.10;0.10;;;;;;;;;;5001945;28;20136;-70
2023/03/27 01:58:46;;;;;;;0.20;0.20;;;;;;;;;;4995063;28;20053;-78
2023/03/27 02:01:17;;;;;;;0.10;0.10;;;;;;;;;;4999146;28;20136;-66
2023/03/27 02:03:47;;;;;;;0.10;0.10;;;;;;;;;;5002049;28;20131;-61
2023/03/27 02:06:17;;;;;;;0.10;0.10;;;;;;;;;;5021566;28;20570;-65
2023/03/27 02:08:47;;;;;;;0.65;0.20;;;;;;;;;;5018285;28;20141;-75
2023/03/27 02:11:17;;;;;;;0.75;0.20;;;;;;;;;;5020163;28;20057;-67
2023/03/27 02:13:48;;;;;;;0.10;0.10;;;;;;;;;;5017858;28;20493;-75
2023/03/27 02:16:19;;;;;;;0.10;0.10;;;;;;;;;;5016588;28;20049;-74
2023/03/27 02:18:53;;;;;;;0.13;0.13;;;;;;;;;;5019226;28;20458;-67
2023/03/27 02:21:22;;;;;;;0.22;0.22;;;;;;;;;;5021488;28;20050;-73
2023/03/27 02:23:51;;;;;;;0.13;0.13;;;;;;;;;;5019215;28;20169;-77
2023/03/27 02:26:21;;;;;;;0.10;0.10;;;;;;;;;;5017987;28;20565;-71
2023/03/27 02:28:57;;;;;;;0.20;0.20;;;;;;;;;;5017162;28;20046;-70
2023/03/27 02:31:32;;;;;;;0.10;0.10;;;;;;;;;;5013060;28;20522;-64
2023/03/27 02:34:19;;;;;;;2.72;0.30;;;;;;;;;;5019192;28;20047;-61
2023/03/27 02:36:52;;;;;;;0.40;0.40;;;;;;;;;;5018393;28;20140;-74
2023/03/27 02:39:24;;;;;;;0.10;0.10;;;;;;;;;;5018316;28;20046;-70
2023/03/27 02:41:58;;;;;;;0.10;0.10;;;;;;;;;;5012484;28;20054;-73
2023/03/27 02:44:30;;;;;;;0.32;0.15;;;;;;;;;;5015621;28;20356;-65
2023/03/27 02:47:03;;;;;;;0.20;0.20;;;;;;;;;;5016834;28;20057;-77
2023/03/27 02:49:34;;;;;;;0.25;0.25;;;;;;;;;;5020313;28;20045;-73
2023/03/27 02:52:05;;;;;;;0.10;0.10;;;;;;;;;;5019582;28;20510;-72
2023/03/27 02:54:36;;;;;;;0.10;0.10;;;;;;;;;;5020156;28;20081;-70
2023/03/27 02:57:09;;;;;;;0.10;0.10;;;;;;;;;;5018352;28;20052;-72
2023/03/27 02:59:41;;;;;;;0.30;0.30;;;;;;;;;;5017113;28;20100;-77
2023/03/27 03:02:11;;;;;;;1.15;0.30;;;;;;;;;;5016075;28;20644;-72
2023/03/27 03:04:41;;;;;;;0.10;0.10;;;;;;;;;;5005745;28;20683;-74
2023/03/27 03:07:10;;;;;;;2.53;0.40;;;;;;;;;;4993823;28;20053;-68
2023/03/27 03:09:38;;;;;;;0.20;0.20;;;;;;;;;;4995512;28;20050;-63
2023/03/27 03:12:09;;;;;;;0.20;0.20;;;;;;;;;;4999576;28;20072;-72
2023/03/27 03:14:39;;;;;;;0.28;0.28;;;;;;;;;;4997699;28;20057;-69
2023/03/27 03:17:08;;;;;;;0.60;0.60;;;;;;;;;;4993757;28;21294;-67
2023/03/27 03:19:36;;;;;;;0.10;0.10;;;;;;;;;;4997730;28;20038;-68
2023/03/27 03:22:05;;;;;;;0.30;0.30;;;;;;;;;;4997283;28;20046;-79
2023/03/27 03:24:34;;;;;;;0.22;0.22;;;;;;;;;;4997634;28;20513;-71
2023/03/27 03:27:03;;;;;;;0.43;0.22;;;;;;;;;;5000307;28;20054;-72
2023/03/27 03:29:35;;;;;;;0.20;0.20;;;;;;;;;;4994645;28;20051;-72
2023/03/27 03:32:04;;;;;;;0.10;0.10;;;;;;;;;;4994620;28;20049;-66
2023/03/27 03:34:33;;;;;;;0.20;0.20;;;;;;;;;;4999889;28;20046;-74
2023/03/27 03:37:01;;;;;;;0.10;0.10;;;;;;;;;;4998752;28;20529;-74
2023/03/27 03:39:30;;;;;;;0.55;0.40;;;;;;;;;;4999829;28;20046;-73
2023/03/27 03:41:58;;;;;;;0.30;0.30;;;;;;;;;;4995791;28;20054;-74
2023/03/27 03:44:26;;;;;;;0.25;0.25;;;;;;;;;;4993386;28;20064;-64
2023/03/27 03:46:56;;;;;;;0.10;0.10;;;;;;;;;;4996727;28;20042;-70
2023/03/27 03:49:24;;;;;;;0.20;0.20;;;;;;;;;;4998590;28;20455;-72
2023/03/27 03:51:52;;;;;;;0.17;0.17;;;;;;;;;;5004354;28;21652;-74
2023/03/27 03:54:31;;;;;;;0.22;0.22;;;;;;;;;;5003164;28;20054;-70
2023/03/27 03:57:01;;;;;;;0.30;0.30;;;;;;;;;;5003700;28;20045;-71
2023/03/27 03:59:30;;;;;;;2.72;0.30;;;;;;;;;;4997711;28;20088;-70
2023/03/27 04:02:00;;;;;;;0.15;0.15;;;;;;;;;;5000335;28;20073;-74
2023/03/27 04:04:30;;;;;;;0.10;0.10;;;;;;;;;;4999708;28;20057;-73
2023/03/27 04:06:59;;;;;;;0.10;0.10;;;;;;;;;;5002149;28;20065;-70
2023/03/27 04:09:27;;;;;;;0.13;0.13;;;;;;;;;;5002650;28;20038;-74
2023/03/27 04:11:55;;;;;;;0.38;0.38;;;;;;;;;;5002211;28;20136;-66
2023/03/27 04:14:24;;;;;;;0.10;0.10;;;;;;;;;;4998804;28;20410;-75
2023/03/27 04:16:52;;;;;;;0.40;0.40;;;;;;;;;;4998967;28;20049;-73
2023/03/27 04:19:22;;;;;;;0.10;0.10;;;;;;;;;;5003023;28;20053;-71
2023/03/27 04:21:52;;;;;;;1.05;0.65;;;;;;;;;;5001931;28;20053;-70
2023/03/27 04:24:22;;;;;;;0.10;0.10;;;;;;;;;;4999310;28;20144;-68
2023/03/27 04:26:51;;;;;;;0.10;0.10;;;;;;;;;;5000358;28;20411;-62
2023/03/27 04:29:21;;;;;;;0.30;0.30;;;;;;;;;;4998723;28;20072;-73
2023/03/27 04:31:50;;;;;;;0.20;0.20;;;;;;;;;;4993474;28;20053;-73
2023/03/27 04:34:21;;;;;;;0.25;0.25;;;;;;;;;;5001403;28;20042;-69
2023/03/27 04:36:50;;;;;;;0.68;0.68;;;;;;;;;;4999609;28;20062;-73
2023/03/27 04:39:19;;;;;;;0.40;0.40;;;;;;;;;;4994863;28;20060;-73
2023/03/27 04:41:48;;;;;;;0.52;0.50;;;;;;;;;;4999178;28;20049;-75
2023/03/27 04:44:17;;;;;;;0.68;0.25;;;;;;;;;;4998843;28;21487;-77
2023/03/27 04:46:47;;;;;;;0.68;0.52;;;;;;;;;;4997141;28;20062;-78
2023/03/27 04:49:17;;;;;;;0.30;0.30;;;;;;;;;;4995500;28;20050;-77
2023/03/27 04:51:46;;;;;;;0.10;0.10;;;;;;;;;;4996140;28;20050;-76
2023/03/27 04:54:16;;;;;;;0.45;0.43;;;;;;;;;;4996817;28;20046;-76
2023/03/27 04:56:45;;;;;;;0.20;0.20;;;;;;;;;;4996809;28;20060;-76
2023/03/27 04:59:14;;;;;;;0.20;0.20;;;;;;;;;;4999277;28;20093;-74
2023/03/27 05:01:42;;;;;;;0.10;0.10;;;;;;;;;;4998635;28;20457;-73
2023/03/27 05:04:11;;;;;;;0.10;0.10;;;;;;;;;;4995561;28;20553;-73
2023/03/27 05:06:40;;;;;;;0.32;0.25;;;;;;;;;;5002455;28;20038;-71
2023/03/27 05:09:08;;;;;;;0.10;0.10;;;;;;;;;;4999317;28;20054;-61
2023/03/27 05:11:38;;;;;;;0.10;0.10;;;;;;;;;;5001980;28;20517;-77
2023/03/27 05:14:06;;;;;;;0.10;0.10;;;;;;;;;;4996889;28;20050;-74
2023/03/27 05:16:35;;;;;;;0.13;0.13;;;;;;;;;;4999055;28;20062;-66
2023/03/27 05:19:03;;;;;;;0.32;0.30;;;;;;;;;;4999254;28;20046;-72
2023/03/27 05:21:32;;;;;;;0.10;0.10;;;;;;;;;;4999975;28;20056;-70
2023/03/27 05:24:00;;;;;;;0.40;0.40;;;;;;;;;;5003094;28;20049;-80
2023/03/27 05:26:29;;;;;;;0.10;0.10;;;;;;;;;;5000784;28;20060;-75
2023/03/27 05:28:59;;;;;;;0.47;0.30;;;;;;;;;;5003497;28;20048;-74
2023/03/27 05:31:28;;;;;;;0.10;0.10;;;;;;;;;;5001367;28;20061;-64
2023/03/27 05:33:57;;;;;;;2.55;0.85;;;;;;;;;;5001258;28;20046;-72
2023/03/27 05:36:27;;;;;;;0.20;0.20;;;;;;;;;;5000872;28;20046;-80
2023/03/27 05:38:56;;;;;;;0.10;0.10;;;;;;;;;;4998740;28;20423;-79
2023/03/27 05:41:25;;;;;;;1.33;0.38;;;;;;;;;;4999347;28;20133;-75
2023/03/27 05:43:53;;;;;;;0.10;0.10;;;;;;;;;;4998112;28;20515;-70
2023/03/27 05:46:23;;;;;;;0.63;0.20;;;;;;;;;;4998842;28;20056;-70
2023/03/27 05:48:51;;;;;;;0.10;0.10;;;;;;;;;;4996980;28;20050;-81
2023/03/27 05:51:19;;;;;;;0.17;0.17;;;;;;;;;;5001954;28;20054;-77
2023/03/27 05:53:48;;;;;;;0.10;0.10;;;;;;;;;;5001096;28;20038;-76
2023/03/27 05:56:16;;;;;;;0.10;0.10;;;;;;;;;;5000122;28;20659;-79
2023/03/27 05:58:44;;;;;;;3.03;0.55;;;;;;;;;;5000423;28;20048;-74
2023/03/27 06:01:13;;;;;;;0.20;0.20;;;;;;;;;;4997920;28;20057;-77
2023/03/27 06:03:43;;;;;;;0.10;0.10;;;;;;;;;;5001227;28;20053;-66
2023/03/27 06:06:13;;;;;;;0.20;0.20;;;;;;;;;;5020077;28;20072;-70
2023/03/27 06:08:41;;;;;;;0.10;0.10;;;;;;;;;;5020328;28;20410;-78
2023/03/27 06:11:10;;;;;;;0.20;0.20;;;;;;;;;;5020903;28;20443;-75
2023/03/27 06:13:39;;;;;;;0.10;0.10;;;;;;;;;;5019410;28;20477;-78
2023/03/27 06:16:09;;;;;;;0.30;0.30;;;;;;;;;;5017205;28;20045;-72
2023/03/27 06:18:37;;;;;;;0.10;0.10;;;;;;;;;;5018934;28;20080;-75
2023/03/27 06:21:07;;;;;;;0.10;0.10;;;;;;;;;;5021080;28;20140;-78
2023/03/27 06:23:36;;;;;;;0.10;0.10;;;;;;;;;;5019576;28;20041;-78
2023/03/27 06:26:04;;;;;;;0.68;0.40;;;;;;;;;;5014989;28;20854;-78
2023/03/27 06:28:33;;;;;;;0.25;0.25;;;;;;;;;;5020495;28;20068;-75
2023/03/27 06:31:01;;;;;;;0.20;0.20;;;;;;;;;;5019447;28;20045;-69
2023/03/27 06:33:30;;;;;;;0.40;0.40;;;;;;;;;;5014651;28;20064;-77
2023/03/27 06:36:00;;;;;;;0.20;0.20;;;;;;;;;;5019571;28;20049;-79
2023/03/27 06:38:31;;;;;;;0.10;0.10;;;;;;;;;;5020176;28;20045;-82
2023/03/27 06:41:00;;;;;;;0.10;0.10;;;;;;;;;;5018904;28;20423;-77
2023/03/27 06:43:28;;;;;;;0.10;0.10;;;;;;;;;;5018889;28;20046;-79
2023/03/27 06:45:57;;;;;;;0.20;0.20;;;;;;;;;;5016976;28;20052;-64
2023/03/27 06:48:25;;;;;;;0.30;0.30;;;;;;;;;;5020737;28;20410;-82
2023/03/27 06:50:55;;;;;;;0.10;0.10;;;;;;;;;;5019052;28;20140;-67
2023/03/27 06:53:23;;;;;;;0.40;0.20;;;;;;;;;;5018696;28;20417;-73
2023/03/27 06:55:57;;;;;;;0.52;0.30;;;;;;;;;;5017685;28;20045;-70
2023/03/27 06:58:26;;;;;;;0.20;0.20;;;;;;;;;;5019945;28;20052;-69
2023/03/27 07:00:54;;;;;;;0.30;0.30;;;;;;;;;;5020197;28;20041;-63
2023/03/27 07:03:24;;;;;;;0.10;0.10;;;;;;;;;;5019586;28;20725;-78
2023/03/27 07:05:53;;;;;;;0.10;0.10;;;;;;;;;;5002157;28;20050;-79
2023/03/27 07:08:23;;;;;;;0.55;0.40;;;;;;;;;;4995513;28;20499;-76
2023/03/27 07:10:53;;;;;;;0.20;0.20;;;;;;;;;;5002832;28;20084;-80
2023/03/27 07:13:26;;;;;;;0.20;0.20;;;;;;;;;;5005143;28;20128;-69
2023/03/27 07:15:54;;;;;;;0.25;0.25;;;;;;;;;;4998399;28;20504;-78
2023/03/27 07:18:23;;;;;;;0.15;0.15;;;;;;;;;;5001760;28;20606;-81
2023/03/27 07:20:52;;;;;;;0.10;0.10;;;;;;;;;;5004237;28;20053;-69
2023/03/27 07:23:20;;;;;;;0.20;0.20;;;;;;;;;;5000578;28;20128;-73
2023/03/27 07:25:48;;;;;;;0.15;0.15;;;;;;;;;;5014611;28;20108;-77
2023/03/27 07:28:18;;;;;;;0.20;0.20;;;;;;;;;;5006859;28;20058;-79
2023/03/27 07:30:48;;;;;;;0.43;0.43;;;;;;;;;;5013192;28;20046;-77
2023/03/27 07:33:16;;;;;;;0.13;0.13;;;;;;;;;;5005715;28;20045;-79
2023/03/27 07:35:45;;;;;;;0.20;0.20;;;;;;;;;;5012323;28;20144;-75
2023/03/27 07:38:14;;;;;;;0.35;0.30;;;;;;;;;;5006592;28;20467;-72
2023/03/27 07:40:44;;;;;;;0.20;0.20;;;;;;;;;;4998266;28;20060;-80
2023/03/27 07:43:13;;;;;;;0.20;0.20;;;;;;;;;;4996574;28;20050;-81
2023/03/27 07:45:42;;;;;;;0.30;0.30;;;;;;;;;;5009206;28;20077;-80
2023/03/27 07:48:14;;;;;;;0.10;0.10;;;;;;;;;;5004136;28;20045;-65
2023/03/27 07:50:43;;;;;;;0.45;0.45;;;;;;;;;;5013097;28;20180;-79
2023/03/27 07:53:12;;;;;;;1.88;0.73;;;;;;;;;;5012655;28;20135;-80
2023/03/27 07:56:01;;;;;;;0.10;0.10;;;;;;;;;;5001955;28;20050;-76
2023/03/27 07:58:29;;;;;;;1.90;0.75;;;;;;;;;;5007499;28;20050;-82
2023/03/27 08:01:00;;;;;;;1.42;0.68;;;;;;;;;;5003765;28;20577;-78
2023/03/27 08:03:31;;;;;;;0.30;0.30;;;;;;;;;;5003775;28;20119;-67
2023/03/27 08:06:00;;;;;;;0.20;0.20;;;;;;;;;;5002306;28;20057;-76
2023/03/27 08:08:29;;;;;;;0.65;0.65;;;;;;;;;;5002435;28;20046;-65
2023/03/27 08:10:58;;;;;;;0.95;0.22;;;;;;;;;;5003997;28;20049;-75
2023/03/27 08:13:27;;;;;;;0.45;0.45;;;;;;;;;;5002386;28;20132;-79
2023/03/27 08:16:03;;;;;;;0.98;0.68;;;;;;;;;;5003367;28;20049;-79
2023/03/27 08:18:33;;;;;;;2.92;1.00;;;;;;;;;;5000810;28;20046;-73
2023/03/27 08:21:03;;;;;;;3.60;1.20;;;;;;;;;;5003230;28;20050;-77
2023/03/27 08:23:32;;;;;;;1.00;0.57;;;;;;;;;;5000700;28;20377;-73
2023/03/27 08:26:02;;;;;;;1.90;1.20;;;;;;;;;;5000218;28;20140;-75
2023/03/27 08:28:31;;;;;;;4.20;1.45;;;;;;;;;;5000426;28;20056;-76
2023/03/27 08:31:00;;;;;;;4.80;1.20;;;;;;;;;;5005805;28;20081;-72
2023/03/27 08:33:30;;;;;;;1.40;0.93;;;;;;;;;;4998229;28;20140;-73
2023/03/27 08:36:00;;;;;;;1.50;1.15;;;;;;;;;;4999233;28;20065;-68
2023/03/27 08:38:31;;;;;;;1.17;1.13;;;;;;;;;;5003252;28;20046;-77
2023/03/27 08:41:02;;;;;;;2.97;1.58;;;;;;;;;;5001172;28;20133;-76
2023/03/27 08:43:34;;;;;;;3.83;0.82;;;;;;;;;;4997873;28;20144;-67
2023/03/27 08:46:05;;;;;;;0.52;0.50;;;;;;;;;;5002733;28;20069;-70
2023/03/27 08:48:36;;;;;;;2.65;1.58;;;;;;;;;;5002206;28;20628;-77
2023/03/27 08:51:07;;;;;;;1.60;0.82;;;;;;;;;;5003207;28;20054;-77
2023/03/27 08:53:40;;;;;;;1.00;0.90;;;;;;;;;;5000153;28;21154;-75
2023/03/27 08:56:11;;;;;;;5.10;2.58;;;;;;;;;;4998221;28;20229;-77
2023/03/27 08:58:40;;;;;;;0.68;0.50;;;;;;;;;;4999314;28;20486;-74
2023/03/27 09:01:11;;;;;;;1.23;0.52;;;;;;;;;;4999472;28;20042;-68
2023/03/27 09:03:46;;;;;;;3.67;2.05;;;;;;;;;;4998277;28;20507;-74
2023/03/27 09:06:25;;;;;;;0.68;0.65;;;;;;;;;;4999119;28;20050;-65
2023/03/27 09:08:58;;;;;;;1.90;0.80;;;;;;;;;;5001893;28;20108;-78
2023/03/27 09:11:33;;;;;;;1.40;1.08;;;;;;;;;;5002293;28;20045;-64
2023/03/27 09:14:01;;;;;;;2.28;1.40;;;;;;;;;;5000365;28;20050;-67
2023/03/27 09:16:32;;;;;;;1.02;0.73;;;;;;;;;;5001908;28;20499;-74
2023/03/27 09:19:04;;;;;;;2.65;0.90;;;;;;;;;;4999265;28;20158;-79
2023/03/27 09:21:37;;;;;;;0.88;0.88;;;;;;;;;;4999772;28;20045;-76
2023/03/27 09:24:07;;;;;;;5.60;1.10;;;;;;;;;;5001270;28;20415;-67
2023/03/27 09:26:36;;;;;;;2.63;0.90;;;;;;;;;;4999299;28;20064;-77
2023/03/27 09:29:11;;;;;;;7.97;2.42;;;;;;;;;;5002945;28;20077;-75
2023/03/27 09:31:48;;;;;;;1.52;1.42;;;;;;;;;;4996498;28;20046;-74
2023/03/27 09:34:20;;;;;;;11.40;1.88;;;;;;;;;;4999595;28;20187;-75
2023/03/27 09:36:50;;;;;;;0.43;0.40;;;;;;;;;;4998783;28;20084;-73
2023/03/27 09:39:21;;;;;;;0.57;0.57;;;;;;;;;;5001929;28;20063;-72
2023/03/27 09:41:51;;;;;;;1.02;0.85;;;;;;;;;;4999157;28;20058;-74
2023/03/27 09:44:24;;;;;;;2.72;1.23;;;;;;;;;;5001051;28;20153;-76
2023/03/27 09:46:57;;;;;;;1.48;1.13;;;;;;;;;;4997811;28;20081;-68
2023/03/27 09:49:26;;;;;;;2.20;1.13;;;;;;;;;;4997021;28;20395;-75
2023/03/27 09:51:57;;;;;;;0.98;0.90;;;;;;;;;;4998220;28;20050;-66
2023/03/27 09:54:27;;;;;;;0.98;0.85;;;;;;;;;;5000893;28;20049;-61
2023/03/27 09:57:00;;;;;;;1.67;1.58;;;;;;;;;;5002854;28;20065;-74
2023/03/27 09:59:31;;;;;;;1.60;1.00;;;;;;;;;;5001194;28;20050;-77
2023/03/27 10:02:01;;;;;;;1.00;0.95;;;;;;;;;;5002694;28;20755;-76
2023/03/27 10:04:30;;;;;;;0.50;0.50;;;;;;;;;;4995343;28;20133;-75
2023/03/27 10:07:01;;;;;;;1.20;0.90;;;;;;;;;;5000736;28;20046;-69
2023/03/27 10:09:30;;;;;;;0.73;0.68;;;;;;;;;;5002606;28;20045;-77
2023/03/27 10:12:04;;;;;;;0.85;0.85;;;;;;;;;;5001540;28;20038;-75
2023/03/27 10:14:34;;;;;;;0.83;0.83;;;;;;;;;;5001275;28;20060;-77
2023/03/27 10:17:03;;;;;;;3.05;0.73;;;;;;;;;;4996584;28;20050;-77
2023/03/27 10:19:35;;;;;;;1.55;0.98;;;;;;;;;;4998448;28;20046;-75
2023/03/27 10:22:09;;;;;;;0.70;0.70;;;;;;;;;;4998506;28;20050;-72
2023/03/27 10:24:41;;;;;;;2.00;0.95;;;;;;;;;;4999732;28;20053;-76
2023/03/27 10:27:17;;;;;;;1.52;0.85;;;;;;;;;;5001182;28;20042;-77
2023/03/27 10:29:46;;;;;;;0.85;0.35;;;;;;;;;;4997564;28;20133;-69
2023/03/27 10:32:14;;;;;;;4.38;0.77;;;;;;;;;;4997852;28;20077;-76
2023/03/27 10:34:51;;;;;;;0.82;0.65;;;;;;;;;;4998966;28;20474;-77
2023/03/27 10:37:27;;;;;;;0.75;0.65;;;;;;;;;;4999165;28;20404;-73
2023/03/27 10:39:57;;;;;;;9.77;2.20;;;;;;;;;;5000959;28;20069;-77
2023/03/27 10:42:26;;;;;;;2.15;2.03;;;;;;;;;;5000512;28;20050;-74
2023/03/27 10:44:56;;;;;;;1.02;0.65;;;;;;;;;;4996081;28;20141;-73
2023/03/27 10:47:26;;;;;;;2.13;1.17;;;;;;;;;;4997358;28;20050;-75
2023/03/27 10:49:59;;;;;;;1.02;0.90;;;;;;;;;;4997595;28;20053;-71
2023/03/27 10:52:33;;;;;;;1.35;0.82;;;;;;;;;;5000230;28;20565;-70
2023/03/27 10:55:12;;;;;;;5.82;1.10;;;;;;;;;;4998686;28;20056;-68
2023/03/27 10:57:42;;;;;;;1.05;0.77;;;;;;;;;;4999482;28;20077;-70
2023/03/27 11:00:17;;;;;;;0.93;0.82;;;;;;;;;;4998514;28;20038;-65
2023/03/27 11:02:48;;;;;;;0.85;0.85;;;;;;;;;;4997131;28;20045;-67
2023/03/27 11:05:19;;;;;;;1.73;1.10;;;;;;;;;;5013906;28;20057;-69
2023/03/27 11:07:51;;;;;;;1.65;1.17;;;;;;;;;;5017277;28;20494;-65
2023/03/27 11:10:22;;;;;;;2.13;1.70;;;;;;;;;;5017206;28;20054;-71
2023/03/27 11:12:54;;;;;;;0.55;0.55;;;;;;;;;;5018205;28;20096;-69
2023/03/27 11:15:24;;;;;;;3.17;1.17;;;;;;;;;;5017108;28;20479;-72
2023/03/27 11:17:56;;;;;;;0.30;0.30;;;;;;;;;;5014929;28;20473;-71
2023/03/27 11:20:28;;;;;;;0.85;0.40;;;;;;;;;;5020992;28;20053;-65
2023/03/27 11:23:00;;;;;;;0.98;0.90;;;;;;;;;;5015238;28;20434;-63
2023/03/27 11:25:33;;;;;;;1.42;1.15;;;;;;;;;;5014379;28;20496;-66
2023/03/27 11:28:06;;;;;;;1.02;0.70;;;;;;;;;;5015167;28;20050;-65
2023/03/27 11:30:37;;;;;;;0.65;0.65;;;;;;;;;;5017749;28;20554;-65
2023/03/27 11:33:09;;;;;;;1.02;1.02;;;;;;;;;;5015541;28;20052;-65
2023/03/27 11:35:39;;;;;;;2.35;0.80;;;;;;;;;;5016226;28;20136;-65
2023/03/27 11:38:14;;;;;;;4.95;0.70;;;;;;;;;;5015383;28;20053;-64
2023/03/27 11:40:44;;;;;;;0.85;0.32;;;;;;;;;;5017075;28;20049;-66
2023/03/27 11:43:13;;;;;;;1.83;0.95;;;;;;;;;;5017577;28;20506;-66
2023/03/27 11:45:44;;;;;;;0.75;0.60;;;;;;;;;;5018336;28;20045;-63
2023/03/27 11:48:20;;;;;;;1.23;1.13;;;;;;;;;;5013793;28;20085;-65
2023/03/27 11:50:52;;;;;;;0.57;0.57;;;;;;;;;;5015226;28;20049;-67
2023/03/27 11:53:39;;;;;;;0.20;0.20;;;;;;;;;;5013569;28;20060;-63
2023/03/27 11:56:15;;;;;;;4.22;0.47;;;;;;;;;;5014723;28;20570;-65
2023/03/27 11:58:46;;;;;;;1.02;0.77;;;;;;;;;;5014321;28;20123;-64
2023/03/27 12:01:20;;;;;;;1.52;0.32;;;;;;;;;;5020564;28;20445;-63
2023/03/27 12:04:07;;;;;;;3.20;0.98;;;;;;;;;;5013888;28;20062;-63
2023/03/27 12:06:41;;;;;;;0.50;0.50;;;;;;;;;;4994297;28;20046;-66
2023/03/27 12:09:19;;;;;;;0.40;0.40;;;;;;;;;;4992884;28;20129;-66
2023/03/27 12:11:51;;;;;;;0.80;0.60;;;;;;;;;;4996740;28;20842;-65
2023/03/27 12:14:38;;;;;;;5.07;2.20;;;;;;;;;;4999298;28;20041;-64
2023/03/27 12:17:17;;;;;;;2.00;0.88;;;;;;;;;;5001387;28;20164;-67
2023/03/27 12:19:56;;;;;;;0.50;0.50;;;;;;;;;;4998936;28;20131;-66
2023/03/27 12:22:31;;;;;;;2.05;1.65;;;;;;;;;;5004085;28;20377;-64
2023/03/27 12:24:59;;;;;;;;;;;;;;;;;;5002550;28;20093;-65
2023/03/27 12:27:36;;;;;;;0.75;0.43;;;;;;;;;;5002112;28;19964;-65
2023/03/27 12:30:15;;;;;;;0.10;0.10;;;;;;;;;;5001452;28;20068;-65
2023/03/27 12:33:08;;;;;;;0.30;0.30;;;;;;;;;;4999947;28;20073;-66
2023/03/27 12:35:38;;;;;;;1.00;0.88;;;;;;;;;;4978245;28;20053;-66
2023/03/27 12:38:08;;;;;;;0.30;0.20;;;;;;;;;;4997906;28;20104;-65
2023/03/27 12:40:39;;;;;;;0.40;0.40;;;;;;;;;;5003354;28;20068;-64
2023/03/27 12:43:20;;;;;;;4.30;0.43;;;;;;;;;;5003297;28;20514;-67
2023/03/27 12:46:03;;;;;;;0.17;0.17;;;;;;;;;;5000970;28;20069;-66
2023/03/27 12:48:33;;;;;;;0.20;0.20;;;;;;;;;;4981655;28;20081;-63
2023/03/27 12:51:02;;;;;;;0.47;0.47;;;;;;;;;;5001798;28;20558;-64
2023/03/27 12:53:47;;;;;;;0.77;0.63;;;;;;;;;;5002188;28;20050;-66
2023/03/27 12:56:34;;;;;;;0.95;0.50;;;;;;;;;;4994537;28;20360;-64
2023/03/27 12:59:14;;;;;;;0.20;0.20;;;;;;;;;;4999496;28;20042;-66
2023/03/27 13:02:00;;;;;;;0.55;0.38;;;;;;;;;;4999760;28;21141;-65
2023/03/27 13:04:40;;;;;;;0.52;0.38;;;;;;;;;;4995175;28;20200;-65
2023/03/27 13:07:12;;;;;;;1.35;0.70;;;;;;;;;;4997234;28;20518;-65
2023/03/27 13:09:47;;;;;;;0.13;0.13;;;;;;;;;;4996976;28;20495;-62
2023/03/27 13:12:30;;;;;;;0.10;0.10;;;;;;;;;;4998662;28;20515;-64
2023/03/27 13:15:08;;;;;;;0.20;0.20;;;;;;;;;;4997582;28;20103;-65
2023/03/27 13:17:42;;;;;;;1.40;0.22;;;;;;;;;;4997338;28;20046;-65
2023/03/27 13:20:11;;;;;;;;;;;;;;;;;;5000615;28;20659;-64
2023/03/27 13:22:47;;;;;;;2.40;0.40;;;;;;;;;;4999108;28;19951;-63
2023/03/27 13:25:32;;;;;;;0.10;0.10;;;;;;;;;;4999707;28;20050;-65
2023/03/27 13:28:26;;;;;;;0.30;0.25;;;;;;;;;;4999362;28;20519;-66
2023/03/27 13:30:56;;;;;;;0.10;0.10;;;;;;;;;;4993892;28;20401;-64
2023/03/27 13:33:26;;;;;;;0.10;0.10;;;;;;;;;;4997069;28;20045;-62
2023/03/27 13:36:07;;;;;;;0.10;0.10;;;;;;;;;;4997352;28;20422;-66
2023/03/27 13:38:47;;;;;;;2.20;0.40;;;;;;;;;;4999184;28;20099;-65
2023/03/27 13:41:34;;;;;;;0.32;0.32;;;;;;;;;;5000575;28;20542;-65
2023/03/27 13:44:03;;;;;;;0.77;0.40;;;;;;;;;;4998336;28;20054;-65
2023/03/27 13:46:34;;;;;;;0.60;0.20;;;;;;;;;;5001167;28;20463;-66
2023/03/27 13:49:19;;;;;;;0.20;0.20;;;;;;;;;;4997879;28;20521;-66
2023/03/27 13:51:55;;;;;;;0.40;0.40;;;;;;;;;;5000084;28;20038;-64
2023/03/27 13:54:29;;;;;;;7.22;0.60;;;;;;;;;;4996233;28;20453;-65
2023/03/27 13:57:05;;;;;;;0.10;0.10;;;;;;;;;;4998334;28;20461;-65
2023/03/27 13:59:46;;;;;;;0.10;0.10;;;;;;;;;;4999200;28;20054;-65
2023/03/27 14:02:39;;;;;;;0.20;0.20;;;;;;;;;;4995784;28;20812;-65
2023/03/27 14:05:24;;;;;;;0.13;0.13;;;;;;;;;;5014538;28;20544;-66
2023/03/27 14:08:12;;;;;;;1.17;0.32;;;;;;;;;;5018002;28;20048;-63
2023/03/27 14:10:49;;;;;;;0.10;0.10;;;;;;;;;;5017660;28;20146;-66
2023/03/27 14:13:23;;;;;;;0.10;0.10;;;;;;;;;;5020689;28;20064;-66
2023/03/27 14:16:21;;;;;;;0.17;0.17;;;;;;;;;;5016594;28;20056;-66
2023/03/27 14:19:07;;;;;;;0.10;0.10;;;;;;;;;;5015941;28;20135;-66
2023/03/27 14:21:49;;;;;;;0.10;0.10;;;;;;;;;;5018599;28;20133;-67
2023/03/27 14:24:21;;;;;;;0.43;0.28;;;;;;;;;;5021613;28;20561;-65
2023/03/27 14:26:50;;;;;;;0.20;0.20;;;;;;;;;;5016932;28;20906;-65
2023/03/27 14:29:20;;;;;;;0.38;0.35;;;;;;;;;;5019266;28;20418;-67
2023/03/27 14:31:49;;;;;;;0.40;0.32;;;;;;;;;;5020846;28;20045;-66
2023/03/27 14:34:23;;;;;;;2.15;0.52;;;;;;;;;;5016200;28;20041;-65
2023/03/27 14:36:52;;;;;;;0.10;0.10;;;;;;;;;;5017786;28;20058;-67
2023/03/27 14:39:21;;;;;;;0.10;0.10;;;;;;;;;;5019197;28;20519;-67
2023/03/27 14:41:52;;;;;;;0.10;0.10;;;;;;;;;;5018345;28;20059;-66
2023/03/27 14:44:21;;;;;;;0.20;0.20;;;;;;;;;;5020152;28;20119;-66
2023/03/27 14:46:50;;;;;;;0.10;0.10;;;;;;;;;;5019867;28;20115;-66
2023/03/27 14:49:22;;;;;;;0.10;0.10;;;;;;;;;;5019866;28;20053;-66
2023/03/27 14:51:53;;;;;;;0.40;0.40;;;;;;;;;;5019165;28;20132;-65
2023/03/27 14:54:27;;;;;;;0.30;0.30;;;;;;;;;;5018476;28;20081;-66
2023/03/27 14:56:57;;;;;;;1.15;0.30;;;;;;;;;;5014005;28;20099;-65
2023/03/27 14:59:26;;;;;;;0.25;0.25;;;;;;;;;;5020082;28;20132;-67
2023/03/27 15:01:56;;;;;;;0.10;0.10;;;;;;;;;;5017737;28;20138;-69
2023/03/27 15:04:27;;;;;;;0.85;0.50;;;;;;;;;;5006479;28;21797;-70
2023/03/27 15:07:13;;;;;;;0.10;0.10;;;;;;;;;;4994197;28;20395;-72
2023/03/27 15:09:42;;;;;;;0.10;0.10;;;;;;;;;;5005240;28;20065;-65
2023/03/27 15:12:11;;;;;;;0.60;0.30;;;;;;;;;;5001152;28;21114;-67